METAR Reports From Nearby Airports

 

KLUD - Decatur, Texas, USA
Distance from Wildwood: ESE 5mi, 8km
Updated: May 23, 2019 4:15am
Partly Cloudy
Partly Cloudy
 Wind from SE
Wind: SE 14 mph , 22 km/h, Gust: 21 mph , 33 km/h
Temperature: 77°F , 25°C
Dew Point: 72°F , 22°C
Humidity: 83%
Barometer: 29.88 inHg , 1011.9 hPa
Clouds: Partly Cloudy
Visibility: 7 miles , 11 km
Cloud details: Partly Cloudy 1700 ft
2019/05/23 09:15 KLUD 230915Z AUTO 14012G18KT 7SM SCT017 25/22 A2988 RMK AO2 T02460222
KXBP - Bridgeport, Texas, USA
Distance from Wildwood: WSW 11mi, 18km
Updated: May 23, 2019 4:15am
Partly Cloudy
Partly Cloudy
 Wind from SSE
Wind: SSE 10 mph , 17 km/h
Temperature: 77°F , 25°C
Dew Point: 72°F , 22°C
Humidity: 83%
Barometer: 29.89 inHg , 1012.2 hPa
Clouds: Partly Cloudy
Visibility: 10 miles , 16 km
Cloud details: Partly Cloudy 1700 ft
Partly Cloudy 4200 ft
2019/05/23 09:15 KXBP 230915Z AUTO 15009KT 10SM SCT017 SCT042 25/22 A2989 RMK AO2 T02450218
 
K0F2 - Bowie, Texas, USA
Distance from Wildwood: NNW 24mi, 39km
Updated: May 23, 2019 4:15am
Overcast
Overcast
 Wind from SSE
Wind: SSE 16 mph , 26 km/h, Gust: 23 mph , 37 km/h
Temperature: 75°F , 24°C
Dew Point: 72°F , 22°C
Humidity: 89%
Barometer: 29.87 inHg , 1011.5 hPa
Clouds: Overcast
Visibility: 10 miles , 16 km
Cloud details: Mostly Cloudy 1700 ft
Overcast 2300 ft
2019/05/23 09:15 K0F2 230915Z AUTO 16014G20KT 10SM BKN017 OVC023 24/22 A2987 RMK AO2 T02410220
KDTO - Denton, Texas, USA
Distance from Wildwood: E 27mi, 44km
Updated: May 23, 2019 3:53am
Overcast
Overcast
 Wind from SSE
Wind: SSE 14 mph , 22 km/h
Temperature: 77°F , 25°C
Dew Point: 72°F , 22°C
Humidity: 83%
Barometer: 29.89 inHg , 1012.2 hPa
Clouds: Overcast
Visibility: 10 miles , 16 km
Cloud details: Mostly Cloudy 2400 ft
Overcast 3200 ft
2019/05/23 08:53 KDTO 230853Z AUTO 16012KT 10SM BKN024 OVC032 25/22 A2989 RMK AO2 SLP110 T02500222 53007
 
KAFW - Ft Worth/Allianc, Texas, USA
Distance from Wildwood: SE 29mi, 46km
Updated: May 23, 2019 3:53am
Haze, Overcast
Haze, Overcast
 Wind from SSE
Wind: SSE 17 mph , 28 km/h, Gust: 28 mph , 44 km/h
Temperature: 79°F , 26°C
Dew Point: 72°F , 22°C
Humidity: 79%
Barometer: 29.87 inHg , 1011.5 hPa
Summary: Haze
Clouds: Overcast
Visibility: 6 miles , 10 km
Cloud details: Mostly Cloudy 2000 ft
Overcast 3700 ft
2019/05/23 08:53 KAFW 230853Z 16015G24KT 6SM HZ BKN020 OVC037 26/22 A2987 RMK AO2 SLP100 T02560217 53005
KFTW - Fort Worth, Texas, USA
Distance from Wildwood: SSE 34mi, 55km
Updated: May 23, 2019 3:53am
Overcast
Overcast
 Wind from SSE
Wind: SSE 16 mph , 26 km/h, Gust: 25 mph , 41 km/h
Temperature: 77°F , 25°C
Dew Point: 72°F , 22°C
Humidity: 83%
Barometer: 29.87 inHg , 1011.5 hPa
Clouds: Overcast
Visibility: 8 miles , 13 km
Cloud details: Mostly Cloudy 2000 ft
Mostly Cloudy 3200 ft
Overcast 4200 ft
2019/05/23 08:53 KFTW 230853Z 15014G22KT 8SM BKN020 BKN032 OVC042 25/22 A2987 RMK AO2 SLP106 T02500222 53006
 
KNFW - Fort Worth Nas, Texas, USA
Distance from Wildwood: SSE 36mi, 58km
Updated: May 23, 2019 3:52am
Overcast
Overcast
 Wind from SE
Wind: SE 15 mph , 24 km/h, Gust: 22 mph , 35 km/h
Temperature: 79°F , 26°C
Dew Point: 72°F , 22°C
Humidity: 79%
Barometer: 29.88 inHg , 1011.9 hPa
Clouds: Overcast
Visibility: 10 miles , 16 km
Cloud details: Partly Cloudy 2000 ft
Mostly Cloudy 2400 ft
Overcast 3500 ft
2019/05/23 08:52 KNFW 230852Z AUTO 14013G19KT 10SM SCT020 BKN024 OVC035 26/22 A2988 RMK AO2 SLP101 T02610222 51005 $
KGLE - Gainesville, Texas, USA
Distance from Wildwood: NE 38mi, 61km
Updated: May 23, 2019 4:15am
Overcast
Overcast
 Wind from calm
Wind: Calm
Temperature: 75°F , 24°C
Dew Point: 72°F , 22°C
Humidity: 89%
Barometer: 29.92 inHg , 1013.2 hPa
Clouds: Overcast
Visibility: 7 miles , 11 km
Cloud details: Mostly Cloudy 2200 ft
Overcast 2700 ft
2019/05/23 09:15 KGLE 230915Z AUTO 00000KT 7SM BKN022 OVC027 24/22 A2992 RMK AO2 T02410221 PWINO
 
KMWL - Mineral Wells, Texas, USA
Distance from Wildwood: SW 41mi, 65km
Updated: May 23, 2019 3:53am
Overcast
Overcast
 Wind from SSE
Wind: SSE 10 mph , 17 km/h
Temperature: 75°F , 24°C
Dew Point: 72°F , 22°C
Humidity: 89%
Barometer: 29.84 inHg , 1010.5 hPa
Clouds: Overcast
Visibility: 8 miles , 13 km
Cloud details: Overcast 3900 ft
2019/05/23 08:53 KMWL 230853Z AUTO 15009KT 8SM OVC039 24/22 A2984 RMK AO2 SLP092 T02390217 53002
KDFW - Dallas/Ft Worth, Texas, USA
Distance from Wildwood: ESE 45mi, 73km
Updated: May 23, 2019 3:53am
Mostly Cloudy
Mostly Cloudy
 Wind from S
Wind: S 15 mph , 24 km/h
Temperature: 77°F , 25°C
Dew Point: 72°F , 22°C
Humidity: 83%
Barometer: 29.87 inHg , 1011.5 hPa
Clouds: Mostly Cloudy
Visibility: 10 miles , 16 km
Cloud details: Mostly Cloudy 2100 ft
Mostly Cloudy 3500 ft
2019/05/23 08:53 KDFW 230853Z 17013KT 10SM BKN021 BKN035 25/22 A2987 RMK AO2 SLP106 T02500217 52007